sensor_id;sensor_type;location;lat;lon;timestamp;temperature;humidity
17938;DHT22;16051;53.024;8.630;2023-04-07T00:01:22;9.80;70.60
17938;DHT22;16051;53.024;8.630;2023-04-07T00:05:28;9.80;70.80
17938;DHT22;16051;53.024;8.630;2023-04-07T00:09:30;9.70;71.00
17938;DHT22;16051;53.024;8.630;2023-04-07T00:13:32;9.70;71.40
17938;DHT22;16051;53.024;8.630;2023-04-07T00:17:35;9.60;71.50
17938;DHT22;16051;53.024;8.630;2023-04-07T00:21:38;9.50;71.40
17938;DHT22;16051;53.024;8.630;2023-04-07T00:25:40;9.50;71.40
17938;DHT22;16051;53.024;8.630;2023-04-07T00:29:42;9.50;71.50
17938;DHT22;16051;53.024;8.630;2023-04-07T00:38:44;9.30;71.90
17938;DHT22;16051;53.024;8.630;2023-04-07T00:42:46;9.30;72.20
17938;DHT22;16051;53.024;8.630;2023-04-07T00:47:17;9.20;72.30
17938;DHT22;16051;53.024;8.630;2023-04-07T00:51:20;9.10;72.30
17938;DHT22;16051;53.024;8.630;2023-04-07T00:55:24;9.00;72.60
17938;DHT22;16051;53.024;8.630;2023-04-07T00:59:26;9.00;72.90
17938;DHT22;16051;53.024;8.630;2023-04-07T01:03:34;8.90;73.00
17938;DHT22;16051;53.024;8.630;2023-04-07T01:07:51;8.80;73.30
17938;DHT22;16051;53.024;8.630;2023-04-07T01:12:06;8.80;73.60
17938;DHT22;16051;53.024;8.630;2023-04-07T01:16:18;8.70;73.90
17938;DHT22;16051;53.024;8.630;2023-04-07T01:20:32;8.60;74.20
17938;DHT22;16051;53.024;8.630;2023-04-07T01:24:57;8.50;74.50
17938;DHT22;16051;53.024;8.630;2023-04-07T01:29:33;8.50;74.80
17938;DHT22;16051;53.024;8.630;2023-04-07T01:33:43;8.40;74.80
17938;DHT22;16051;53.024;8.630;2023-04-07T01:38:05;8.40;76.00
17938;DHT22;16051;53.024;8.630;2023-04-07T01:42:08;8.30;75.30
17938;DHT22;16051;53.024;8.630;2023-04-07T01:46:13;8.30;75.50
17938;DHT22;16051;53.024;8.630;2023-04-07T01:50:16;8.30;75.80
17938;DHT22;16051;53.024;8.630;2023-04-07T01:54:27;8.30;76.00
17938;DHT22;16051;53.024;8.630;2023-04-07T01:58:30;8.30;76.10
17938;DHT22;16051;53.024;8.630;2023-04-07T02:02:35;8.30;76.20
17938;DHT22;16051;53.024;8.630;2023-04-07T02:06:45;8.20;76.60
17938;DHT22;16051;53.024;8.630;2023-04-07T02:10:51;8.10;76.70
17938;DHT22;16051;53.024;8.630;2023-04-07T02:14:57;8.10;77.30
17938;DHT22;16051;53.024;8.630;2023-04-07T02:19:02;8.00;77.30
17938;DHT22;16051;53.024;8.630;2023-04-07T02:23:35;8.00;77.80
17938;DHT22;16051;53.024;8.630;2023-04-07T02:27:37;7.90;78.10
17938;DHT22;16051;53.024;8.630;2023-04-07T02:31:42;7.80;78.30
17938;DHT22;16051;53.024;8.630;2023-04-07T02:35:45;7.70;78.60
17938;DHT22;16051;53.024;8.630;2023-04-07T02:39:47;7.70;78.90
17938;DHT22;16051;53.024;8.630;2023-04-07T02:43:49;7.60;79.20
17938;DHT22;16051;53.024;8.630;2023-04-07T02:47:51;7.60;79.50
17938;DHT22;16051;53.024;8.630;2023-04-07T02:51:55;7.50;79.50
17938;DHT22;16051;53.024;8.630;2023-04-07T02:55:57;7.50;79.90
17938;DHT22;16051;53.024;8.630;2023-04-07T03:00:00;7.50;80.20
17938;DHT22;16051;53.024;8.630;2023-04-07T03:04:02;7.40;80.40
17938;DHT22;16051;53.024;8.630;2023-04-07T03:08:06;7.40;80.40
17938;DHT22;16051;53.024;8.630;2023-04-07T03:12:08;7.40;80.80
17938;DHT22;16051;53.024;8.630;2023-04-07T03:16:11;7.30;81.20
17938;DHT22;16051;53.024;8.630;2023-04-07T03:20:13;7.30;81.40
17938;DHT22;16051;53.024;8.630;2023-04-07T03:24:16;7.20;82.00
17938;DHT22;16051;53.024;8.630;2023-04-07T03:28:18;7.20;82.30
17938;DHT22;16051;53.024;8.630;2023-04-07T03:32:20;7.10;82.70
17938;DHT22;16051;53.024;8.630;2023-04-07T03:36:23;7.10;83.00
17938;DHT22;16051;53.024;8.630;2023-04-07T03:40:28;7.10;83.50
17938;DHT22;16051;53.024;8.630;2023-04-07T03:44:30;7.00;83.60
17938;DHT22;16051;53.024;8.630;2023-04-07T03:48:32;7.00;84.00
17938;DHT22;16051;53.024;8.630;2023-04-07T03:52:34;7.00;84.20
17938;DHT22;16051;53.024;8.630;2023-04-07T03:56:38;6.90;84.40
17938;DHT22;16051;53.024;8.630;2023-04-07T04:00:41;6.90;84.70
17938;DHT22;16051;53.024;8.630;2023-04-07T04:04:43;6.90;85.00
17938;DHT22;16051;53.024;8.630;2023-04-07T04:08:53;6.80;85.30
17938;DHT22;16051;53.024;8.630;2023-04-07T04:12:57;6.80;85.90
17938;DHT22;16051;53.024;8.630;2023-04-07T04:17:00;6.70;86.10
17938;DHT22;16051;53.024;8.630;2023-04-07T04:21:06;6.70;86.40
17938;DHT22;16051;53.024;8.630;2023-04-07T04:25:09;6.70;86.80
17938;DHT22;16051;53.024;8.630;2023-04-07T04:29:13;6.60;87.10
17938;DHT22;16051;53.024;8.630;2023-04-07T04:33:41;6.50;87.50
17938;DHT22;16051;53.024;8.630;2023-04-07T04:37:43;6.40;88.10
17938;DHT22;16051;53.024;8.630;2023-04-07T04:41:45;6.40;88.50
17938;DHT22;16051;53.024;8.630;2023-04-07T04:45:55;6.30;89.10
17938;DHT22;16051;53.024;8.630;2023-04-07T04:49:58;6.20;89.40
17938;DHT22;16051;53.024;8.630;2023-04-07T04:54:00;6.20;89.90
17938;DHT22;16051;53.024;8.630;2023-04-07T04:58:03;6.20;90.30
17938;DHT22;16051;53.024;8.630;2023-04-07T05:02:07;6.10;90.40
17938;DHT22;16051;53.024;8.630;2023-04-07T05:06:09;6.10;90.60
17938;DHT22;16051;53.024;8.630;2023-04-07T05:10:21;6.10;90.80
17938;DHT22;16051;53.024;8.630;2023-04-07T05:14:42;6.00;91.00
17938;DHT22;16051;53.024;8.630;2023-04-07T05:18:52;6.10;91.10
17938;DHT22;16051;53.024;8.630;2023-04-07T05:22:57;6.10;91.30
17938;DHT22;16051;53.024;8.630;2023-04-07T05:26:59;6.10;91.40
17938;DHT22;16051;53.024;8.630;2023-04-07T05:31:01;6.00;91.60
17938;DHT22;16051;53.024;8.630;2023-04-07T05:35:38;6.10;91.70
17938;DHT22;16051;53.024;8.630;2023-04-07T05:39:41;6.10;91.80
17938;DHT22;16051;53.024;8.630;2023-04-07T05:43:43;6.10;91.90
17938;DHT22;16051;53.024;8.630;2023-04-07T05:47:45;6.10;92.10
17938;DHT22;16051;53.024;8.630;2023-04-07T05:51:50;6.10;92.20
17938;DHT22;16051;53.024;8.630;2023-04-07T05:55:57;6.10;92.40
17938;DHT22;16051;53.024;8.630;2023-04-07T05:59:59;6.20;92.50
17938;DHT22;16051;53.024;8.630;2023-04-07T06:04:01;6.20;92.50
17938;DHT22;16051;53.024;8.630;2023-04-07T06:08:15;6.30;92.50
17938;DHT22;16051;53.024;8.630;2023-04-07T06:12:17;6.40;92.60
17938;DHT22;16051;53.024;8.630;2023-04-07T06:16:29;6.40;92.90
17938;DHT22;16051;53.024;8.630;2023-04-07T06:20:42;6.50;92.40
17938;DHT22;16051;53.024;8.630;2023-04-07T06:24:46;7.80;99.90
17938;DHT22;16051;53.024;8.630;2023-04-07T06:28:49;8.40;99.90
17938;DHT22;16051;53.024;8.630;2023-04-07T06:32:51;8.50;99.90
17938;DHT22;16051;53.024;8.630;2023-04-07T06:36:53;8.70;99.90
17938;DHT22;16051;53.024;8.630;2023-04-07T06:40:56;8.80;99.90
17938;DHT22;16051;53.024;8.630;2023-04-07T06:44:59;9.10;99.90
17938;DHT22;16051;53.024;8.630;2023-04-07T06:49:01;9.30;99.90
17938;DHT22;16051;53.024;8.630;2023-04-07T06:53:05;9.30;99.90
17938;DHT22;16051;53.024;8.630;2023-04-07T06:57:09;9.40;99.20
17938;DHT22;16051;53.024;8.630;2023-04-07T07:01:12;9.40;99.10
17938;DHT22;16051;53.024;8.630;2023-04-07T07:05:14;9.10;97.10
17938;DHT22;16051;53.024;8.630;2023-04-07T07:09:16;9.00;97.10
17938;DHT22;16051;53.024;8.630;2023-04-07T07:13:23;9.20;96.30
17938;DHT22;16051;53.024;8.630;2023-04-07T07:17:26;9.50;95.00
17938;DHT22;16051;53.024;8.630;2023-04-07T07:21:35;9.90;94.90
17938;DHT22;16051;53.024;8.630;2023-04-07T07:25:37;10.30;93.40
17938;DHT22;16051;53.024;8.630;2023-04-07T07:29:41;10.60;92.50
17938;DHT22;16051;53.024;8.630;2023-04-07T07:33:51;11.00;92.00
17938;DHT22;16051;53.024;8.630;2023-04-07T07:37:53;11.40;90.80
17938;DHT22;16051;53.024;8.630;2023-04-07T07:42:26;11.80;90.30
17938;DHT22;16051;53.024;8.630;2023-04-07T07:46:30;12.20;88.90
17938;DHT22;16051;53.024;8.630;2023-04-07T07:50:32;12.50;87.40
17938;DHT22;16051;53.024;8.630;2023-04-07T07:54:34;12.70;86.00
17938;DHT22;16051;53.024;8.630;2023-04-07T07:58:36;13.00;85.10
17938;DHT22;16051;53.024;8.630;2023-04-07T08:02:40;13.30;83.20
17938;DHT22;16051;53.024;8.630;2023-04-07T08:06:42;13.40;82.20
17938;DHT22;16051;53.024;8.630;2023-04-07T08:10:44;13.40;81.90
17938;DHT22;16051;53.024;8.630;2023-04-07T08:14:46;13.70;80.40
17938;DHT22;16051;53.024;8.630;2023-04-07T08:18:50;13.80;79.20
17938;DHT22;16051;53.024;8.630;2023-04-07T08:23:00;14.00;77.30
17938;DHT22;16051;53.024;8.630;2023-04-07T08:27:03;13.90;76.90
17938;DHT22;16051;53.024;8.630;2023-04-07T08:35:41;13.80;73.80
17938;DHT22;16051;53.024;8.630;2023-04-07T08:39:43;13.90;72.80
17938;DHT22;16051;53.024;8.630;2023-04-07T08:43:46;14.00;71.80
17938;DHT22;16051;53.024;8.630;2023-04-07T08:47:51;13.90;70.00
17938;DHT22;16051;53.024;8.630;2023-04-07T08:51:59;13.70;69.20
17938;DHT22;16051;53.024;8.630;2023-04-07T08:56:05;13.80;69.30
17938;DHT22;16051;53.024;8.630;2023-04-07T09:00:09;13.70;68.90
17938;DHT22;16051;53.024;8.630;2023-04-07T09:04:12;13.80;68.70
17938;DHT22;16051;53.024;8.630;2023-04-07T09:08:16;13.90;68.80
17938;DHT22;16051;53.024;8.630;2023-04-07T09:12:18;14.00;68.90
17938;DHT22;16051;53.024;8.630;2023-04-07T09:16:21;14.20;67.60
17938;DHT22;16051;53.024;8.630;2023-04-07T09:20:24;14.40;67.80
17938;DHT22;16051;53.024;8.630;2023-04-07T09:24:28;14.90;66.70
17938;DHT22;16051;53.024;8.630;2023-04-07T09:28:41;15.20;65.00
17938;DHT22;16051;53.024;8.630;2023-04-07T09:32:45;15.60;63.70
17938;DHT22;16051;53.024;8.630;2023-04-07T09:36:47;15.90;63.00
17938;DHT22;16051;53.024;8.630;2023-04-07T09:40:50;16.10;62.10
17938;DHT22;16051;53.024;8.630;2023-04-07T09:45:07;16.70;60.80
17938;DHT22;16051;53.024;8.630;2023-04-07T09:49:23;17.00;61.20
17938;DHT22;16051;53.024;8.630;2023-04-07T09:53:44;17.40;59.60
17938;DHT22;16051;53.024;8.630;2023-04-07T09:57:56;17.90;58.20
17938;DHT22;16051;53.024;8.630;2023-04-07T10:01:59;18.30;57.60
17938;DHT22;16051;53.024;8.630;2023-04-07T10:06:01;19.00;57.00
17938;DHT22;16051;53.024;8.630;2023-04-07T10:10:06;19.60;56.60
17938;DHT22;16051;53.024;8.630;2023-04-07T10:14:11;20.10;54.30
17938;DHT22;16051;53.024;8.630;2023-04-07T10:18:14;21.10;53.60
17938;DHT22;16051;53.024;8.630;2023-04-07T10:22:18;21.70;52.40
17938;DHT22;16051;53.024;8.630;2023-04-07T10:26:24;21.90;50.50
17938;DHT22;16051;53.024;8.630;2023-04-07T10:30:32;22.30;50.10
17938;DHT22;16051;53.024;8.630;2023-04-07T10:34:58;22.60;50.20
17938;DHT22;16051;53.024;8.630;2023-04-07T10:39:20;23.20;49.60
17938;DHT22;16051;53.024;8.630;2023-04-07T10:43:54;24.40;47.80
17938;DHT22;16051;53.024;8.630;2023-04-07T10:48:10;24.60;46.70
17938;DHT22;16051;53.024;8.630;2023-04-07T10:52:23;25.60;46.80
17938;DHT22;16051;53.024;8.630;2023-04-07T11:01:18;26.80;44.60
17938;DHT22;16051;53.024;8.630;2023-04-07T11:05:25;27.50;43.00
17938;DHT22;16051;53.024;8.630;2023-04-07T11:09:27;27.80;41.70
17938;DHT22;16051;53.024;8.630;2023-04-07T11:13:39;28.00;40.90
17938;DHT22;16051;53.024;8.630;2023-04-07T11:17:42;28.30;40.40
17938;DHT22;16051;53.024;8.630;2023-04-07T11:21:45;28.80;40.10
17938;DHT22;16051;53.024;8.630;2023-04-07T11:25:49;29.10;39.30
17938;DHT22;16051;53.024;8.630;2023-04-07T11:29:54;29.10;38.70
17938;DHT22;16051;53.024;8.630;2023-04-07T11:33:58;29.60;38.00
17938;DHT22;16051;53.024;8.630;2023-04-07T11:38:02;30.10;37.80
17938;DHT22;16051;53.024;8.630;2023-04-07T11:42:05;30.40;36.70
17938;DHT22;16051;53.024;8.630;2023-04-07T11:46:10;30.90;36.60
17938;DHT22;16051;53.024;8.630;2023-04-07T11:50:14;31.10;35.70
17938;DHT22;16051;53.024;8.630;2023-04-07T11:54:39;31.50;35.00
17938;DHT22;16051;53.024;8.630;2023-04-07T11:58:46;30.90;36.20
17938;DHT22;16051;53.024;8.630;2023-04-07T12:03:07;28.90;36.90
17938;DHT22;16051;53.024;8.630;2023-04-07T12:07:11;27.70;36.40
17938;DHT22;16051;53.024;8.630;2023-04-07T12:11:14;26.70;36.30
17938;DHT22;16051;53.024;8.630;2023-04-07T12:15:17;26.20;36.70
17938;DHT22;16051;53.024;8.630;2023-04-07T12:19:20;25.90;37.00
17938;DHT22;16051;53.024;8.630;2023-04-07T12:23:35;25.60;36.20
17938;DHT22;16051;53.024;8.630;2023-04-07T12:27:39;25.50;36.60
17938;DHT22;16051;53.024;8.630;2023-04-07T12:31:41;25.70;36.10
17938;DHT22;16051;53.024;8.630;2023-04-07T12:35:59;25.10;36.20
17938;DHT22;16051;53.024;8.630;2023-04-07T12:40:01;24.90;36.50
17938;DHT22;16051;53.024;8.630;2023-04-07T12:44:05;25.00;36.90
17938;DHT22;16051;53.024;8.630;2023-04-07T12:48:07;25.40;36.00
17938;DHT22;16051;53.024;8.630;2023-04-07T12:52:10;27.20;35.30
17938;DHT22;16051;53.024;8.630;2023-04-07T12:56:12;28.40;33.70
17938;DHT22;16051;53.024;8.630;2023-04-07T13:00:16;27.70;33.20
17938;DHT22;16051;53.024;8.630;2023-04-07T13:04:19;26.70;33.40
17938;DHT22;16051;53.024;8.630;2023-04-07T13:08:22;26.10;33.70
17938;DHT22;16051;53.024;8.630;2023-04-07T13:12:24;25.80;34.50
17938;DHT22;16051;53.024;8.630;2023-04-07T13:16:28;26.00;34.80
17938;DHT22;16051;53.024;8.630;2023-04-07T13:20:30;25.60;34.00
17938;DHT22;16051;53.024;8.630;2023-04-07T13:24:36;25.40;34.40
17938;DHT22;16051;53.024;8.630;2023-04-07T13:28:38;25.80;34.70
17938;DHT22;16051;53.024;8.630;2023-04-07T13:32:42;25.30;34.70
17938;DHT22;16051;53.024;8.630;2023-04-07T13:36:54;25.90;33.80
17938;DHT22;16051;53.024;8.630;2023-04-07T13:40:56;25.60;34.10
17938;DHT22;16051;53.024;8.630;2023-04-07T13:45:32;25.50;34.10
17938;DHT22;16051;53.024;8.630;2023-04-07T13:49:54;25.30;34.40
17938;DHT22;16051;53.024;8.630;2023-04-07T13:53:56;25.30;34.30
17938;DHT22;16051;53.024;8.630;2023-04-07T13:58:08;25.20;34.90
17938;DHT22;16051;53.024;8.630;2023-04-07T14:02:10;25.70;35.10
17938;DHT22;16051;53.024;8.630;2023-04-07T14:06:14;25.50;34.90
17938;DHT22;16051;53.024;8.630;2023-04-07T14:10:16;24.70;34.30
17938;DHT22;16051;53.024;8.630;2023-04-07T14:14:48;24.50;36.10
17938;DHT22;16051;53.024;8.630;2023-04-07T14:18:51;24.90;34.60
17938;DHT22;16051;53.024;8.630;2023-04-07T14:22:55;25.30;35.30
17938;DHT22;16051;53.024;8.630;2023-04-07T14:27:23;25.60;34.70
17938;DHT22;16051;53.024;8.630;2023-04-07T14:31:25;25.20;34.10
17938;DHT22;16051;53.024;8.630;2023-04-07T14:35:30;24.80;34.80
17938;DHT22;16051;53.024;8.630;2023-04-07T14:39:37;24.60;34.00
17938;DHT22;16051;53.024;8.630;2023-04-07T14:43:39;24.50;35.50
17938;DHT22;16051;53.024;8.630;2023-04-07T14:47:41;24.20;35.20
17938;DHT22;16051;53.024;8.630;2023-04-07T14:52:02;23.90;35.30
17938;DHT22;16051;53.024;8.630;2023-04-07T14:56:07;24.40;35.50
17938;DHT22;16051;53.024;8.630;2023-04-07T15:00:15;24.30;35.50
17938;DHT22;16051;53.024;8.630;2023-04-07T15:04:17;24.30;34.40
17938;DHT22;16051;53.024;8.630;2023-04-07T15:08:35;23.50;34.00
17938;DHT22;16051;53.024;8.630;2023-04-07T15:12:38;23.60;34.90
17938;DHT22;16051;53.024;8.630;2023-04-07T15:16:40;23.30;35.10
17938;DHT22;16051;53.024;8.630;2023-04-07T15:20:48;23.70;34.40
17938;DHT22;16051;53.024;8.630;2023-04-07T15:24:54;23.50;34.40
17938;DHT22;16051;53.024;8.630;2023-04-07T15:28:58;22.90;34.70
17938;DHT22;16051;53.024;8.630;2023-04-07T15:33:02;22.90;35.40
17938;DHT22;16051;53.024;8.630;2023-04-07T15:37:19;22.90;35.10
17938;DHT22;16051;53.024;8.630;2023-04-07T15:41:22;22.80;34.50
17938;DHT22;16051;53.024;8.630;2023-04-07T15:45:25;22.20;34.90
17938;DHT22;16051;53.024;8.630;2023-04-07T15:49:28;21.70;35.70
17938;DHT22;16051;53.024;8.630;2023-04-07T15:53:30;21.70;35.00
17938;DHT22;16051;53.024;8.630;2023-04-07T15:57:33;21.90;34.60
17938;DHT22;16051;53.024;8.630;2023-04-07T16:01:37;21.80;35.00
17938;DHT22;16051;53.024;8.630;2023-04-07T16:05:39;21.70;34.40
17938;DHT22;16051;53.024;8.630;2023-04-07T16:09:41;21.40;35.60
17938;DHT22;16051;53.024;8.630;2023-04-07T16:13:43;21.40;35.40
17938;DHT22;16051;53.024;8.630;2023-04-07T16:17:47;21.50;35.60
17938;DHT22;16051;53.024;8.630;2023-04-07T16:21:50;21.40;36.50
17938;DHT22;16051;53.024;8.630;2023-04-07T16:25:52;21.20;36.60
17938;DHT22;16051;53.024;8.630;2023-04-07T16:29:54;20.70;36.30
17938;DHT22;16051;53.024;8.630;2023-04-07T16:34:17;22.40;36.90
17938;DHT22;16051;53.024;8.630;2023-04-07T16:38:20;25.50;34.80
17938;DHT22;16051;53.024;8.630;2023-04-07T16:42:24;26.80;33.00
17938;DHT22;16051;53.024;8.630;2023-04-07T16:46:45;27.20;32.70
17938;DHT22;16051;53.024;8.630;2023-04-07T16:50:56;27.00;32.30
17938;DHT22;16051;53.024;8.630;2023-04-07T16:55:24;26.70;32.40
17938;DHT22;16051;53.024;8.630;2023-04-07T16:59:26;26.10;32.90
17938;DHT22;16051;53.024;8.630;2023-04-07T17:03:28;24.80;33.70
17938;DHT22;16051;53.024;8.630;2023-04-07T17:07:55;23.60;34.60
17938;DHT22;16051;53.024;8.630;2023-04-07T17:12:08;22.70;35.30
17938;DHT22;16051;53.024;8.630;2023-04-07T17:16:15;21.80;36.50
17938;DHT22;16051;53.024;8.630;2023-04-07T17:20:21;21.30;37.10
17938;DHT22;16051;53.024;8.630;2023-04-07T17:24:25;20.80;37.40
17938;DHT22;16051;53.024;8.630;2023-04-07T17:28:27;20.40;37.80
17938;DHT22;16051;53.024;8.630;2023-04-07T17:32:29;20.00;38.40
17938;DHT22;16051;53.024;8.630;2023-04-07T17:36:54;19.50;38.70
17938;DHT22;16051;53.024;8.630;2023-04-07T17:40:59;19.10;39.20
17938;DHT22;16051;53.024;8.630;2023-04-07T17:45:02;18.80;39.70
17938;DHT22;16051;53.024;8.630;2023-04-07T17:49:05;18.50;39.60
17938;DHT22;16051;53.024;8.630;2023-04-07T17:53:08;18.20;40.10
17938;DHT22;16051;53.024;8.630;2023-04-07T17:57:11;17.90;40.40
17938;DHT22;16051;53.024;8.630;2023-04-07T18:01:18;17.60;40.60
17938;DHT22;16051;53.024;8.630;2023-04-07T18:05:20;17.30;40.90
17938;DHT22;16051;53.024;8.630;2023-04-07T18:09:40;17.10;41.20
17938;DHT22;16051;53.024;8.630;2023-04-07T18:13:45;16.90;41.50
17938;DHT22;16051;53.024;8.630;2023-04-07T18:17:48;16.70;41.90
17938;DHT22;16051;53.024;8.630;2023-04-07T18:21:54;16.50;43.60
17938;DHT22;16051;53.024;8.630;2023-04-07T18:25:56;16.40;44.10
17938;DHT22;16051;53.024;8.630;2023-04-07T18:30:00;16.10;44.30
17938;DHT22;16051;53.024;8.630;2023-04-07T18:34:02;15.90;44.40
17938;DHT22;16051;53.024;8.630;2023-04-07T18:38:04;15.70;45.10
17938;DHT22;16051;53.024;8.630;2023-04-07T18:42:07;15.50;46.10
17938;DHT22;16051;53.024;8.630;2023-04-07T18:46:11;15.20;47.30
17938;DHT22;16051;53.024;8.630;2023-04-07T18:50:15;15.10;48.30
17938;DHT22;16051;53.024;8.630;2023-04-07T18:54:17;14.90;49.10
17938;DHT22;16051;53.024;8.630;2023-04-07T18:58:20;14.70;50.00
17938;DHT22;16051;53.024;8.630;2023-04-07T19:02:27;14.60;50.80
17938;DHT22;16051;53.024;8.630;2023-04-07T19:06:29;14.40;51.20
17938;DHT22;16051;53.024;8.630;2023-04-07T19:10:33;14.30;51.90
17938;DHT22;16051;53.024;8.630;2023-04-07T19:14:36;14.10;52.20
17938;DHT22;16051;53.024;8.630;2023-04-07T19:18:50;14.00;52.70
17938;DHT22;16051;53.024;8.630;2023-04-07T19:23:12;13.90;53.10
17938;DHT22;16051;53.024;8.630;2023-04-07T19:27:15;13.80;53.90
17938;DHT22;16051;53.024;8.630;2023-04-07T19:31:18;13.70;53.90
17938;DHT22;16051;53.024;8.630;2023-04-07T19:35:22;13.60;53.80
17938;DHT22;16051;53.024;8.630;2023-04-07T19:39:24;13.50;54.70
17938;DHT22;16051;53.024;8.630;2023-04-07T19:43:26;13.30;55.30
17938;DHT22;16051;53.024;8.630;2023-04-07T19:47:28;13.20;55.50
17938;DHT22;16051;53.024;8.630;2023-04-07T19:51:32;13.10;56.10
17938;DHT22;16051;53.024;8.630;2023-04-07T19:55:34;13.10;56.40
17938;DHT22;16051;53.024;8.630;2023-04-07T19:59:38;13.00;56.80
17938;DHT22;16051;53.024;8.630;2023-04-07T20:03:41;12.90;57.00
17938;DHT22;16051;53.024;8.630;2023-04-07T20:07:46;12.80;57.60
17938;DHT22;16051;53.024;8.630;2023-04-07T20:11:48;12.70;57.90
17938;DHT22;16051;53.024;8.630;2023-04-07T20:15:59;12.60;58.50
17938;DHT22;16051;53.024;8.630;2023-04-07T20:20:02;12.50;58.80
17938;DHT22;16051;53.024;8.630;2023-04-07T20:24:25;12.40;59.50
17938;DHT22;16051;53.024;8.630;2023-04-07T20:28:27;12.40;59.30
17938;DHT22;16051;53.024;8.630;2023-04-07T20:32:29;12.30;59.70
17938;DHT22;16051;53.024;8.630;2023-04-07T20:36:33;12.10;60.20
17938;DHT22;16051;53.024;8.630;2023-04-07T20:40:37;11.90;61.90
17938;DHT22;16051;53.024;8.630;2023-04-07T20:44:39;11.70;63.50
17938;DHT22;16051;53.024;8.630;2023-04-07T20:49:06;11.60;63.70
17938;DHT22;16051;53.024;8.630;2023-04-07T20:53:08;11.60;64.50
17938;DHT22;16051;53.024;8.630;2023-04-07T20:57:11;11.40;65.30
17938;DHT22;16051;53.024;8.630;2023-04-07T21:01:17;11.30;66.50
17938;DHT22;16051;53.024;8.630;2023-04-07T21:05:19;11.20;67.60
17938;DHT22;16051;53.024;8.630;2023-04-07T21:09:21;11.10;68.70
17938;DHT22;16051;53.024;8.630;2023-04-07T21:13:25;11.00;69.30
17938;DHT22;16051;53.024;8.630;2023-04-07T21:17:28;10.90;70.20
17938;DHT22;16051;53.024;8.630;2023-04-07T21:21:31;10.80;70.70
17938;DHT22;16051;53.024;8.630;2023-04-07T21:25:33;10.80;71.20
17938;DHT22;16051;53.024;8.630;2023-04-07T21:29:39;10.70;72.50
17938;DHT22;16051;53.024;8.630;2023-04-07T21:33:41;10.60;73.30
17938;DHT22;16051;53.024;8.630;2023-04-07T21:37:45;10.60;73.70
17938;DHT22;16051;53.024;8.630;2023-04-07T21:41:51;10.50;74.10
17938;DHT22;16051;53.024;8.630;2023-04-07T21:45:54;10.40;75.40
17938;DHT22;16051;53.024;8.630;2023-04-07T21:50:10;10.30;76.20
17938;DHT22;16051;53.024;8.630;2023-04-07T21:54:13;10.30;76.70
17938;DHT22;16051;53.024;8.630;2023-04-07T21:58:15;10.20;77.30
17938;DHT22;16051;53.024;8.630;2023-04-07T22:02:18;10.10;77.90
17938;DHT22;16051;53.024;8.630;2023-04-07T22:06:21;10.10;78.60
17938;DHT22;16051;53.024;8.630;2023-04-07T22:10:23;10.00;79.30
17938;DHT22;16051;53.024;8.630;2023-04-07T22:14:25;10.00;80.50
17938;DHT22;16051;53.024;8.630;2023-04-07T22:18:29;9.90;82.30
17938;DHT22;16051;53.024;8.630;2023-04-07T22:22:31;9.90;83.30
17938;DHT22;16051;53.024;8.630;2023-04-07T22:26:33;9.80;84.10
17938;DHT22;16051;53.024;8.630;2023-04-07T22:30:59;9.80;85.00
17938;DHT22;16051;53.024;8.630;2023-04-07T22:35:03;9.80;85.90
17938;DHT22;16051;53.024;8.630;2023-04-07T22:39:06;9.80;86.80
17938;DHT22;16051;53.024;8.630;2023-04-07T22:43:08;9.80;87.10
17938;DHT22;16051;53.024;8.630;2023-04-07T22:47:12;9.80;87.70
17938;DHT22;16051;53.024;8.630;2023-04-07T22:51:16;9.80;88.30
17938;DHT22;16051;53.024;8.630;2023-04-07T22:55:18;9.80;89.20
17938;DHT22;16051;53.024;8.630;2023-04-07T22:59:21;9.80;90.10
17938;DHT22;16051;53.024;8.630;2023-04-07T23:03:24;9.90;90.40
17938;DHT22;16051;53.024;8.630;2023-04-07T23:07:28;9.80;90.90
17938;DHT22;16051;53.024;8.630;2023-04-07T23:11:30;9.70;91.50
17938;DHT22;16051;53.024;8.630;2023-04-07T23:15:33;9.70;92.10
17938;DHT22;16051;53.024;8.630;2023-04-07T23:19:36;9.70;92.70
17938;DHT22;16051;53.024;8.630;2023-04-07T23:23:40;9.80;93.00
17938;DHT22;16051;53.024;8.630;2023-04-07T23:27:42;9.70;93.60
17938;DHT22;16051;53.024;8.630;2023-04-07T23:31:45;9.70;94.40
17938;DHT22;16051;53.024;8.630;2023-04-07T23:35:58;9.70;94.60
17938;DHT22;16051;53.024;8.630;2023-04-07T23:40:05;9.70;95.20
17938;DHT22;16051;53.024;8.630;2023-04-07T23:44:08;9.70;95.40
17938;DHT22;16051;53.024;8.630;2023-04-07T23:48:10;9.70;95.80
17938;DHT22;16051;53.024;8.630;2023-04-07T23:52:12;9.70;96.20
17938;DHT22;16051;53.024;8.630;2023-04-07T23:56:16;9.70;96.60
